sensor_id;sensor_type;location;lat;lon;timestamp;pressure;altitude;pressure_sealevel;temperature;humidity
50852;BME280;43953;45.508;-122.806;2022-07-17T00:00:04;100943.53;;;27.44;39.43
50852;BME280;43953;45.508;-122.806;2022-07-17T00:00:37;100934.75;;;27.42;39.39
50852;BME280;43953;45.508;-122.806;2022-07-17T00:01:13;100934.75;;;27.42;39.44
50852;BME280;43953;45.508;-122.806;2022-07-17T00:01:45;100935.06;;;27.41;39.14
50852;BME280;43953;45.508;-122.806;2022-07-17T00:02:17;100934.25;;;27.40;39.16
50852;BME280;43953;45.508;-122.806;2022-07-17T00:02:49;100930.16;;;27.38;39.20
50852;BME280;43953;45.508;-122.806;2022-07-17T00:03:20;100932.31;;;27.41;39.70
50852;BME280;43953;45.508;-122.806;2022-07-17T00:03:52;100930.69;;;27.40;39.78
50852;BME280;43953;45.508;-122.806;2022-07-17T00:04:24;100930.34;;;27.41;39.51
50852;BME280;43953;45.508;-122.806;2022-07-17T00:04:56;100931.19;;;27.42;39.44
50852;BME280;43953;45.508;-122.806;2022-07-17T00:05:28;100934.44;;;27.44;39.82
50852;BME280;43953;45.508;-122.806;2022-07-17T00:05:59;100935.25;;;27.44;39.68
50852;BME280;43953;45.508;-122.806;2022-07-17T00:06:31;100931.38;;;27.45;40.00
50852;BME280;43953;45.508;-122.806;2022-07-17T00:07:03;100932.16;;;27.46;40.00
50852;BME280;43953;45.508;-122.806;2022-07-17T00:07:34;100931.66;;;27.44;39.85
50852;BME280;43953;45.508;-122.806;2022-07-17T00:08:07;100929.41;;;27.46;39.30
50852;BME280;43953;45.508;-122.806;2022-07-17T00:08:39;100932.16;;;27.46;39.20
50852;BME280;43953;45.508;-122.806;2022-07-17T00:09:11;100929.41;;;27.46;38.74
50852;BME280;43953;45.508;-122.806;2022-07-17T00:09:43;100931.66;;;27.44;39.13
50852;BME280;43953;45.508;-122.806;2022-07-17T00:10:15;100926.78;;;27.41;39.16
50852;BME280;43953;45.508;-122.806;2022-07-17T00:10:47;100917.38;;;27.42;39.18
50852;BME280;43953;45.508;-122.806;2022-07-17T00:11:19;100922.88;;;27.42;39.09
50852;BME280;43953;45.508;-122.806;2022-07-17T00:11:51;100930.34;;;27.41;39.53
50852;BME280;43953;45.508;-122.806;2022-07-17T00:12:22;100924.81;;;27.41;39.25
50852;BME280;43953;45.508;-122.806;2022-07-17T00:12:54;100930.69;;;27.40;39.47
50852;BME280;43953;45.508;-122.806;2022-07-17T00:13:26;100924.81;;;27.41;39.12
50852;BME280;43953;45.508;-122.806;2022-07-17T00:13:58;100921.25;;;27.41;39.55
50852;BME280;43953;45.508;-122.806;2022-07-17T00:14:30;100923.50;;;27.39;39.47
50852;BME280;43953;45.508;-122.806;2022-07-17T00:15:02;100917.38;;;27.42;39.73
50852;BME280;43953;45.508;-122.806;2022-07-17T00:15:34;100927.78;;;27.45;39.54
50852;BME280;43953;45.508;-122.806;2022-07-17T00:16:06;100919.50;;;27.45;39.61
50852;BME280;43953;45.508;-122.806;2022-07-17T00:16:38;100922.06;;;27.41;40.16
50852;BME280;43953;45.508;-122.806;2022-07-17T00:17:10;100922.25;;;27.45;39.92
50852;BME280;43953;45.508;-122.806;2022-07-17T00:17:41;100912.94;;;27.41;40.42
50852;BME280;43953;45.508;-122.806;2022-07-17T00:18:13;100915.88;;;27.44;40.36
50852;BME280;43953;45.508;-122.806;2022-07-17T00:18:45;100926.13;;;27.44;40.38
50852;BME280;43953;45.508;-122.806;2022-07-17T00:19:16;100914.59;;;27.42;40.58
50852;BME280;43953;45.508;-122.806;2022-07-17T00:19:48;100913.91;;;27.36;40.71
50852;BME280;43953;45.508;-122.806;2022-07-17T00:20:20;100914.91;;;27.40;40.88
50852;BME280;43953;45.508;-122.806;2022-07-17T00:20:52;100923.19;;;27.40;40.37
50852;BME280;43953;45.508;-122.806;2022-07-17T00:21:24;100912.44;;;27.39;40.34
50852;BME280;43953;45.508;-122.806;2022-07-17T00:21:57;100921.88;;;27.38;40.62
50852;BME280;43953;45.508;-122.806;2022-07-17T00:22:28;100919.09;;;27.38;40.74
50852;BME280;43953;45.508;-122.806;2022-07-17T00:23:00;100916.16;;;27.34;40.57
50852;BME280;43953;45.508;-122.806;2022-07-17T00:23:32;100917.78;;;27.35;40.55
50852;BME280;43953;45.508;-122.806;2022-07-17T00:24:04;100911.78;;;27.33;40.82
50852;BME280;43953;45.508;-122.806;2022-07-17T00:24:37;100918.94;;;27.34;40.93
50852;BME280;43953;45.508;-122.806;2022-07-17T00:25:09;100918.75;;;27.31;40.43
50852;BME280;43953;45.508;-122.806;2022-07-17T00:25:41;100920.38;;;27.32;40.33
50852;BME280;43953;45.508;-122.806;2022-07-17T00:26:13;100920.72;;;27.30;40.66
50852;BME280;43953;45.508;-122.806;2022-07-17T00:26:44;100919.41;;;27.28;40.38
50852;BME280;43953;45.508;-122.806;2022-07-17T00:27:16;100916.13;;;27.26;40.86
50852;BME280;43953;45.508;-122.806;2022-07-17T00:27:48;100918.25;;;27.29;40.80
50852;BME280;43953;45.508;-122.806;2022-07-17T00:28:20;100919.41;;;27.28;40.88
50852;BME280;43953;45.508;-122.806;2022-07-17T00:28:51;100916.94;;;27.26;40.76
50852;BME280;43953;45.508;-122.806;2022-07-17T00:29:23;100924.41;;;27.26;40.74
50852;BME280;43953;45.508;-122.806;2022-07-17T00:29:55;100914.00;;;27.22;40.55
50852;BME280;43953;45.508;-122.806;2022-07-17T00:30:27;100905.53;;;27.19;41.09
50852;BME280;43953;45.508;-122.806;2022-07-17T00:30:59;100916.25;;;27.20;41.46
50852;BME280;43953;45.508;-122.806;2022-07-17T00:31:30;100923.44;;;27.21;41.16
50852;BME280;43953;45.508;-122.806;2022-07-17T00:32:02;100916.25;;;27.20;41.43
50852;BME280;43953;45.508;-122.806;2022-07-17T00:32:34;100906.44;;;27.14;41.11
50852;BME280;43953;45.508;-122.806;2022-07-17T00:33:06;100921.78;;;27.20;41.40
50852;BME280;43953;45.508;-122.806;2022-07-17T00:33:38;100907.28;;;27.15;41.28
50852;BME280;43953;45.508;-122.806;2022-07-17T00:34:10;100911.94;;;27.14;41.22
50852;BME280;43953;45.508;-122.806;2022-07-17T00:34:42;100911.44;;;27.12;41.14
50852;BME280;43953;45.508;-122.806;2022-07-17T00:35:14;100910.63;;;27.12;40.76
50852;BME280;43953;45.508;-122.806;2022-07-17T00:35:45;100921.38;;;27.13;41.25
50852;BME280;43953;45.508;-122.806;2022-07-17T00:36:17;100913.72;;;27.10;40.85
50852;BME280;43953;45.508;-122.806;2022-07-17T00:36:49;100916.78;;;27.09;41.17
50852;BME280;43953;45.508;-122.806;2022-07-17T00:37:20;100921.84;;;27.07;40.82
50852;BME280;43953;45.508;-122.806;2022-07-17T00:37:52;100917.75;;;27.04;40.69
50852;BME280;43953;45.508;-122.806;2022-07-17T00:38:24;100914.19;;;27.04;41.14
50852;BME280;43953;45.508;-122.806;2022-07-17T00:38:56;100916.94;;;27.04;40.41
50852;BME280;43953;45.508;-122.806;2022-07-17T00:39:27;100918.88;;;27.03;40.72
50852;BME280;43953;45.508;-122.806;2022-07-17T00:39:59;100916.72;;;27.00;40.57
50852;BME280;43953;45.508;-122.806;2022-07-17T00:40:31;100906.13;;;26.93;40.68
50852;BME280;43953;45.508;-122.806;2022-07-17T00:41:03;100917.88;;;26.99;40.74
50852;BME280;43953;45.508;-122.806;2022-07-17T00:41:35;100920.94;;;26.97;40.68
50852;BME280;43953;45.508;-122.806;2022-07-17T00:42:13;100913.28;;;26.94;41.07
50852;BME280;43953;45.508;-122.806;2022-07-17T00:42:45;100914.41;;;26.93;41.27
50852;BME280;43953;45.508;-122.806;2022-07-17T00:43:17;100921.25;;;26.96;41.11
50852;BME280;43953;45.508;-122.806;2022-07-17T00:43:49;100920.47;;;26.95;40.74
50852;BME280;43953;45.508;-122.806;2022-07-17T00:44:20;100902.69;;;26.88;41.11
50852;BME280;43953;45.508;-122.806;2022-07-17T00:44:52;100923.53;;;26.94;40.76
50852;BME280;43953;45.508;-122.806;2022-07-17T00:45:24;100919.94;;;26.93;40.54
50852;BME280;43953;45.508;-122.806;2022-07-17T00:46:00;100913.09;;;26.91;40.87
50852;BME280;43953;45.508;-122.806;2022-07-17T00:46:33;100915.06;;;26.90;40.62
50852;BME280;43953;45.508;-122.806;2022-07-17T00:47:19;100915.38;;;26.89;40.86
50852;BME280;43953;45.508;-122.806;2022-07-17T00:48:02;100920.38;;;26.87;40.80
50852;BME280;43953;45.508;-122.806;2022-07-17T00:48:34;100912.63;;;26.89;40.43
50852;BME280;43953;45.508;-122.806;2022-07-17T00:49:06;100910.97;;;26.88;40.82
50852;BME280;43953;45.508;-122.806;2022-07-17T00:49:38;100917.63;;;26.87;41.07
50852;BME280;43953;45.508;-122.806;2022-07-17T00:50:10;100907.22;;;26.84;41.11
50852;BME280;43953;45.508;-122.806;2022-07-17T00:50:42;100912.09;;;26.87;41.14
50852;BME280;43953;45.508;-122.806;2022-07-17T00:51:13;100903.31;;;26.85;41.18
50852;BME280;43953;45.508;-122.806;2022-07-17T00:51:45;100907.84;;;26.81;41.32
50852;BME280;43953;45.508;-122.806;2022-07-17T00:52:17;100918.25;;;26.84;41.31
50852;BME280;43953;45.508;-122.806;2022-07-17T00:52:49;100905.56;;;26.83;41.18
50852;BME280;43953;45.508;-122.806;2022-07-17T00:53:22;100911.09;;;26.83;41.10
50852;BME280;43953;45.508;-122.806;2022-07-17T00:53:55;100905.38;;;26.79;41.20
50852;BME280;43953;45.508;-122.806;2022-07-17T00:54:29;100914.16;;;26.81;41.35
50852;BME280;43953;45.508;-122.806;2022-07-17T00:55:02;100899.03;;;26.78;41.38
50852;BME280;43953;45.508;-122.806;2022-07-17T00:55:34;100907.31;;;26.78;41.36
50852;BME280;43953;45.508;-122.806;2022-07-17T00:56:06;100906.00;;;26.76;41.11
50852;BME280;43953;45.508;-122.806;2022-07-17T00:56:40;100905.69;;;26.77;41.27
50852;BME280;43953;45.508;-122.806;2022-07-17T00:57:14;100912.34;;;26.76;41.04
50852;BME280;43953;45.508;-122.806;2022-07-17T00:57:47;100905.19;;;26.75;41.04
50852;BME280;43953;45.508;-122.806;2022-07-17T00:58:24;100912.97;;;26.73;41.05
50852;BME280;43953;45.508;-122.806;2022-07-17T00:58:56;100895.41;;;26.69;41.52
50852;BME280;43953;45.508;-122.806;2022-07-17T00:59:28;100908.28;;;26.74;41.54
50852;BME280;43953;45.508;-122.806;2022-07-17T01:00:02;100914.63;;;26.74;41.15
50852;BME280;43953;45.508;-122.806;2022-07-17T01:00:38;100910.53;;;26.72;41.48
50852;BME280;43953;45.508;-122.806;2022-07-17T01:01:10;100909.72;;;26.71;41.32
50852;BME280;43953;45.508;-122.806;2022-07-17T01:01:42;100903.34;;;26.71;41.17
50852;BME280;43953;45.508;-122.806;2022-07-17T01:02:13;100907.25;;;26.70;41.13
50852;BME280;43953;45.508;-122.806;2022-07-17T01:02:50;100911.44;;;26.67;41.59
50852;BME280;43953;45.508;-122.806;2022-07-17T01:03:24;100895.50;;;26.64;41.53
50852;BME280;43953;45.508;-122.806;2022-07-17T01:03:56;100907.88;;;26.67;41.37
50852;BME280;43953;45.508;-122.806;2022-07-17T01:04:27;100901.53;;;26.66;41.37
50852;BME280;43953;45.508;-122.806;2022-07-17T01:04:59;100899.94;;;26.65;41.00
50852;BME280;43953;45.508;-122.806;2022-07-17T01:05:31;100904.59;;;26.65;41.30
50852;BME280;43953;45.508;-122.806;2022-07-17T01:06:03;100904.94;;;26.63;40.83
50852;BME280;43953;45.508;-122.806;2022-07-17T01:06:36;100904.41;;;26.61;41.05
50852;BME280;43953;45.508;-122.806;2022-07-17T01:07:08;100908.31;;;26.60;40.88
50852;BME280;43953;45.508;-122.806;2022-07-17T01:07:40;100899.53;;;26.58;40.98
50852;BME280;43953;45.508;-122.806;2022-07-17T01:08:12;100899.53;;;26.58;41.20
50852;BME280;43953;45.508;-122.806;2022-07-17T01:08:45;100908.13;;;26.57;41.12
50852;BME280;43953;45.508;-122.806;2022-07-17T01:09:17;100903.25;;;26.53;40.77
50852;BME280;43953;45.508;-122.806;2022-07-17T01:09:48;100904.06;;;26.54;40.99
50852;BME280;43953;45.508;-122.806;2022-07-17T01:10:20;100906.28;;;26.52;41.43
50852;BME280;43953;45.508;-122.806;2022-07-17T01:10:52;100906.63;;;26.50;41.16
50852;BME280;43953;45.508;-122.806;2022-07-17T01:11:24;100898.59;;;26.49;41.69
50852;BME280;43953;45.508;-122.806;2022-07-17T01:11:57;100898.59;;;26.49;41.40
50852;BME280;43953;45.508;-122.806;2022-07-17T01:12:30;100900.03;;;26.46;41.33
50852;BME280;43953;45.508;-122.806;2022-07-17T01:13:03;100905.06;;;26.44;41.41
50852;BME280;43953;45.508;-122.806;2022-07-17T01:13:35;100900.66;;;26.43;41.17
50852;BME280;43953;45.508;-122.806;2022-07-17T01:14:06;100901.00;;;26.42;41.44
50852;BME280;43953;45.508;-122.806;2022-07-17T01:14:39;100900.47;;;26.40;41.01
50852;BME280;43953;45.508;-122.806;2022-07-17T01:15:11;100901.63;;;26.39;41.27
50852;BME280;43953;45.508;-122.806;2022-07-17T01:15:43;100904.66;;;26.37;41.61
50852;BME280;43953;45.508;-122.806;2022-07-17T01:16:15;100904.47;;;26.33;41.16
50852;BME280;43953;45.508;-122.806;2022-07-17T01:16:47;100908.38;;;26.32;41.16
50852;BME280;43953;45.508;-122.806;2022-07-17T01:17:19;100902.88;;;26.32;41.49
50852;BME280;43953;45.508;-122.806;2022-07-17T01:17:51;100896.00;;;26.30;41.49
50852;BME280;43953;45.508;-122.806;2022-07-17T01:18:24;100900.69;;;26.29;41.39
50852;BME280;43953;45.508;-122.806;2022-07-17T01:18:56;100901.84;;;26.28;41.69
50852;BME280;43953;45.508;-122.806;2022-07-17T01:19:28;100906.84;;;26.26;41.86
50852;BME280;43953;45.508;-122.806;2022-07-17T01:20:04;100903.25;;;26.26;41.85
50852;BME280;43953;45.508;-122.806;2022-07-17T01:20:39;100902.44;;;26.25;41.85
50852;BME280;43953;45.508;-122.806;2022-07-17T01:21:10;100904.69;;;26.23;41.72
50852;BME280;43953;45.508;-122.806;2022-07-17T01:21:44;100905.31;;;26.20;41.48
50852;BME280;43953;45.508;-122.806;2022-07-17T01:22:16;100897.03;;;26.20;41.55
50852;BME280;43953;45.508;-122.806;2022-07-17T01:22:50;100899.78;;;26.20;41.75
50852;BME280;43953;45.508;-122.806;2022-07-17T01:23:22;100900.13;;;26.19;41.79
50852;BME280;43953;45.508;-122.806;2022-07-17T01:23:54;100900.75;;;26.16;41.58
50852;BME280;43953;45.508;-122.806;2022-07-17T01:24:26;100892.28;;;26.12;41.61
50852;BME280;43953;45.508;-122.806;2022-07-17T01:24:57;100896.31;;;26.15;41.96
50852;BME280;43953;45.508;-122.806;2022-07-17T01:25:29;100900.22;;;26.14;41.86
50852;BME280;43953;45.508;-122.806;2022-07-17T01:26:01;100896.13;;;26.11;42.30
50852;BME280;43953;45.508;-122.806;2022-07-17T01:26:33;100903.59;;;26.10;42.23
50852;BME280;43953;45.508;-122.806;2022-07-17T01:27:05;100899.22;;;26.09;42.17
50852;BME280;43953;45.508;-122.806;2022-07-17T01:27:37;100900.03;;;26.10;41.91
50852;BME280;43953;45.508;-122.806;2022-07-17T01:28:09;100900.66;;;26.07;42.21
50852;BME280;43953;45.508;-122.806;2022-07-17T01:28:41;100897.56;;;26.08;42.00
50852;BME280;43953;45.508;-122.806;2022-07-17T01:29:14;100899.50;;;26.08;42.23
50852;BME280;43953;45.508;-122.806;2022-07-17T01:29:46;100899.03;;;26.06;42.26
50852;BME280;43953;45.508;-122.806;2022-07-17T01:30:18;100904.53;;;26.06;42.00
50852;BME280;43953;45.508;-122.806;2022-07-17T01:30:51;100904.53;;;26.06;42.04
50852;BME280;43953;45.508;-122.806;2022-07-17T01:31:23;100900.47;;;26.03;41.82
50852;BME280;43953;45.508;-122.806;2022-07-17T01:31:54;100902.69;;;26.01;41.84
50852;BME280;43953;45.508;-122.806;2022-07-17T01:32:38;100904.13;;;25.99;41.56
50852;BME280;43953;45.508;-122.806;2022-07-17T01:33:10;100906.59;;;26.00;41.53
50852;BME280;43953;45.508;-122.806;2022-07-17T01:33:42;100906.06;;;25.98;41.68
50852;BME280;43953;45.508;-122.806;2022-07-17T01:34:14;100908.03;;;25.98;41.72
50852;BME280;43953;45.508;-122.806;2022-07-17T01:34:46;100907.50;;;25.96;41.62
50852;BME280;43953;45.508;-122.806;2022-07-17T01:35:18;100901.78;;;25.92;41.74
50852;BME280;43953;45.508;-122.806;2022-07-17T01:35:49;100904.53;;;25.92;41.71
50852;BME280;43953;45.508;-122.806;2022-07-17T01:36:22;100903.75;;;25.92;41.82
50852;BME280;43953;45.508;-122.806;2022-07-17T01:36:55;100904.34;;;25.89;41.60
50852;BME280;43953;45.508;-122.806;2022-07-17T01:37:27;100902.69;;;25.87;41.80
50852;BME280;43953;45.508;-122.806;2022-07-17T01:37:59;100902.69;;;25.87;41.46
50852;BME280;43953;45.508;-122.806;2022-07-17T01:38:30;100900.75;;;25.88;41.85
50852;BME280;43953;45.508;-122.806;2022-07-17T01:39:03;100901.88;;;25.87;41.70
50852;BME280;43953;45.508;-122.806;2022-07-17T01:39:35;100907.41;;;25.87;41.96
50852;BME280;43953;45.508;-122.806;2022-07-17T01:40:24;100903.31;;;25.84;41.62
50852;BME280;43953;45.508;-122.806;2022-07-17T01:40:56;100903.31;;;25.84;41.59
50852;BME280;43953;45.508;-122.806;2022-07-17T01:41:28;100903.31;;;25.84;41.44
50852;BME280;43953;45.508;-122.806;2022-07-17T01:41:59;100901.69;;;25.83;41.50
50852;BME280;43953;45.508;-122.806;2022-07-17T01:42:31;100897.56;;;25.81;41.38
50852;BME280;43953;45.508;-122.806;2022-07-17T01:43:03;100901.13;;;25.81;41.18
50852;BME280;43953;45.508;-122.806;2022-07-17T01:43:35;100900.66;;;25.79;41.36
50852;BME280;43953;45.508;-122.806;2022-07-17T01:44:07;100900.13;;;25.77;41.42
50852;BME280;43953;45.508;-122.806;2022-07-17T01:44:39;100898.19;;;25.78;41.41
50852;BME280;43953;45.508;-122.806;2022-07-17T01:45:12;100900.13;;;25.77;41.38
50852;BME280;43953;45.508;-122.806;2022-07-17T01:45:44;100895.72;;;25.76;41.52
50852;BME280;43953;45.508;-122.806;2022-07-17T01:46:16;100900.41;;;25.76;41.58
50852;BME280;43953;45.508;-122.806;2022-07-17T01:46:48;100893.28;;;25.75;41.86
50852;BME280;43953;45.508;-122.806;2022-07-17T01:47:20;100898.00;;;25.74;41.73
50852;BME280;43953;45.508;-122.806;2022-07-17T01:47:52;100893.09;;;25.71;41.44
50852;BME280;43953;45.508;-122.806;2022-07-17T01:48:28;100889.81;;;25.69;41.63
50852;BME280;43953;45.508;-122.806;2022-07-17T01:49:00;100903.31;;;25.71;41.56
50852;BME280;43953;45.508;-122.806;2022-07-17T01:49:33;100905.22;;;25.70;41.74
50852;BME280;43953;45.508;-122.806;2022-07-17T01:50:05;100898.41;;;25.68;41.75
50852;BME280;43953;45.508;-122.806;2022-07-17T01:50:37;100903.91;;;25.68;41.46
50852;BME280;43953;45.508;-122.806;2022-07-17T01:51:09;100895.94;;;25.66;41.47
50852;BME280;43953;45.508;-122.806;2022-07-17T01:51:41;100899.81;;;25.65;41.30
50852;BME280;43953;45.508;-122.806;2022-07-17T01:52:12;100898.19;;;25.64;41.71
50852;BME280;43953;45.508;-122.806;2022-07-17T01:52:45;100900.44;;;25.62;41.74
50852;BME280;43953;45.508;-122.806;2022-07-17T01:53:17;100898.78;;;25.61;41.71
50852;BME280;43953;45.508;-122.806;2022-07-17T01:53:48;100901.06;;;25.59;41.57
50852;BME280;43953;45.508;-122.806;2022-07-17T01:54:20;100905.72;;;25.58;41.59
50852;BME280;43953;45.508;-122.806;2022-07-17T01:54:52;100897.78;;;25.57;41.44
50852;BME280;43953;45.508;-122.806;2022-07-17T01:55:24;100900.34;;;25.53;41.79
50852;BME280;43953;45.508;-122.806;2022-07-17T01:55:55;100900.00;;;25.55;41.38
50852;BME280;43953;45.508;-122.806;2022-07-17T01:56:27;100899.19;;;25.54;41.49
50852;BME280;43953;45.508;-122.806;2022-07-17T01:56:59;100902.28;;;25.53;41.40
50852;BME280;43953;45.508;-122.806;2022-07-17T01:57:30;100904.19;;;25.52;41.43
50852;BME280;43953;45.508;-122.806;2022-07-17T01:58:04;100893.56;;;25.46;41.60
50852;BME280;43953;45.508;-122.806;2022-07-17T01:58:36;100902.88;;;25.50;41.27
50852;BME280;43953;45.508;-122.806;2022-07-17T01:59:08;100909.50;;;25.49;41.47
50852;BME280;43953;45.508;-122.806;2022-07-17T01:59:40;100898.56;;;25.43;41.28
50852;BME280;43953;45.508;-122.806;2022-07-17T02:00:15;100909.59;;;25.43;41.70
50852;BME280;43953;45.508;-122.806;2022-07-17T02:00:47;100909.09;;;25.41;41.53
50852;BME280;43953;45.508;-122.806;2022-07-17T02:01:19;100904.69;;;25.40;41.77
50852;BME280;43953;45.508;-122.806;2022-07-17T02:01:51;100903.38;;;25.38;41.55
50852;BME280;43953;45.508;-122.806;2022-07-17T02:02:22;100889.69;;;25.33;41.43
50852;BME280;43953;45.508;-122.806;2022-07-17T02:02:54;100902.84;;;25.36;41.29
50852;BME280;43953;45.508;-122.806;2022-07-17T02:03:26;100907.56;;;25.35;41.83
50852;BME280;43953;45.508;-122.806;2022-07-17T02:03:57;100902.34;;;25.34;41.70
50852;BME280;43953;45.508;-122.806;2022-07-17T02:04:29;100898.25;;;25.31;41.70
50852;BME280;43953;45.508;-122.806;2022-07-17T02:05:01;100903.75;;;25.31;41.75
50852;BME280;43953;45.508;-122.806;2022-07-17T02:05:33;100904.88;;;25.30;41.57
50852;BME280;43953;45.508;-122.806;2022-07-17T02:06:05;100901.59;;;25.28;41.90
50852;BME280;43953;45.508;-122.806;2022-07-17T02:06:37;100905.50;;;25.27;41.67
50852;BME280;43953;45.508;-122.806;2022-07-17T02:07:09;100903.88;;;25.26;41.66
50852;BME280;43953;45.508;-122.806;2022-07-17T02:07:41;100902.22;;;25.25;41.75
50852;BME280;43953;45.508;-122.806;2022-07-17T02:08:14;100900.59;;;25.24;41.59
50852;BME280;43953;45.508;-122.806;2022-07-17T02:08:46;100907.53;;;25.22;41.57
50852;BME280;43953;45.508;-122.806;2022-07-17T02:09:22;100903.13;;;25.21;41.89
50852;BME280;43953;45.508;-122.806;2022-07-17T02:09:53;100905.06;;;25.20;42.07
50852;BME280;43953;45.508;-122.806;2022-07-17T02:10:25;100898.22;;;25.17;41.89
50852;BME280;43953;45.508;-122.806;2022-07-17T02:10:57;100891.69;;;25.13;42.04
50852;BME280;43953;45.508;-122.806;2022-07-17T02:11:28;100893.59;;;25.13;41.99
50852;BME280;43953;45.508;-122.806;2022-07-17T02:12:00;100896.34;;;25.13;42.12
50852;BME280;43953;45.508;-122.806;2022-07-17T02:12:32;100904.59;;;25.13;42.04
50852;BME280;43953;45.508;-122.806;2022-07-17T02:13:04;100899.69;;;25.10;41.87
50852;BME280;43953;45.508;-122.806;2022-07-17T02:13:36;100899.69;;;25.10;42.04
50852;BME280;43953;45.508;-122.806;2022-07-17T02:14:07;100907.16;;;25.09;42.18
50852;BME280;43953;45.508;-122.806;2022-07-17T02:14:39;100897.25;;;25.08;42.06
50852;BME280;43953;45.508;-122.806;2022-07-17T02:15:11;100905.00;;;25.06;42.20
50852;BME280;43953;45.508;-122.806;2022-07-17T02:15:43;100906.41;;;25.04;42.21
50852;BME280;43953;45.508;-122.806;2022-07-17T02:16:15;100892.22;;;24.96;42.32
50852;BME280;43953;45.508;-122.806;2022-07-17T02:16:47;100914.38;;;25.05;42.08
50852;BME280;43953;45.508;-122.806;2022-07-17T02:17:18;100902.53;;;25.05;42.20
50852;BME280;43953;45.508;-122.806;2022-07-17T02:17:50;100909.19;;;25.04;42.23
50852;BME280;43953;45.508;-122.806;2022-07-17T02:18:22;100910.31;;;25.03;42.21
50852;BME280;43953;45.508;-122.806;2022-07-17T02:18:54;100909.47;;;25.02;42.43
50852;BME280;43953;45.508;-122.806;2022-07-17T02:19:25;100906.50;;;24.98;42.42
50852;BME280;43953;45.508;-122.806;2022-07-17T02:19:57;100914.16;;;25.02;42.41
50852;BME280;43953;45.508;-122.806;2022-07-17T02:20:29;100911.41;;;25.02;42.30
50852;BME280;43953;45.508;-122.806;2022-07-17T02:21:01;100908.97;;;25.00;42.18
50852;BME280;43953;45.508;-122.806;2022-07-17T02:21:33;100903.53;;;24.95;42.34
50852;BME280;43953;45.508;-122.806;2022-07-17T02:22:05;100910.38;;;24.97;42.30
50852;BME280;43953;45.508;-122.806;2022-07-17T02:22:37;100897.81;;;24.91;42.44
50852;BME280;43953;45.508;-122.806;2022-07-17T02:23:08;100910.66;;;24.96;42.18
50852;BME280;43953;45.508;-122.806;2022-07-17T02:23:41;100909.03;;;24.95;42.20
50852;BME280;43953;45.508;-122.806;2022-07-17T02:24:13;100901.06;;;24.93;42.18
50852;BME280;43953;45.508;-122.806;2022-07-17T02:24:44;100905.75;;;24.93;42.05
50852;BME280;43953;45.508;-122.806;2022-07-17T02:25:16;100912.09;;;24.93;42.40
50852;BME280;43953;45.508;-122.806;2022-07-17T02:25:48;100910.47;;;24.92;42.18
50852;BME280;43953;45.508;-122.806;2022-07-17T02:26:19;100908.84;;;24.91;42.26
50852;BME280;43953;45.508;-122.806;2022-07-17T02:26:51;100903.31;;;24.91;42.37
50852;BME280;43953;45.508;-122.806;2022-07-17T02:27:23;100902.28;;;24.87;42.58
50852;BME280;43953;45.508;-122.806;2022-07-17T02:27:55;100912.69;;;24.90;42.52
50852;BME280;43953;45.508;-122.806;2022-07-17T02:28:26;100899.84;;;24.86;42.44
50852;BME280;43953;45.508;-122.806;2022-07-17T02:28:58;100897.88;;;24.86;42.46
50852;BME280;43953;45.508;-122.806;2022-07-17T02:29:30;100899.63;;;24.82;42.29
50852;BME280;43953;45.508;-122.806;2022-07-17T02:30:03;100902.28;;;24.87;42.36
50852;BME280;43953;45.508;-122.806;2022-07-17T02:30:36;100903.41;;;24.86;42.15
50852;BME280;43953;45.508;-122.806;2022-07-17T02:31:08;100902.28;;;24.87;42.36
50852;BME280;43953;45.508;-122.806;2022-07-17T02:31:39;100909.44;;;24.88;42.16
50852;BME280;43953;45.508;-122.806;2022-07-17T02:32:11;100903.72;;;24.85;42.38
50852;BME280;43953;45.508;-122.806;2022-07-17T02:32:43;100907.50;;;24.89;42.23
50852;BME280;43953;45.508;-122.806;2022-07-17T02:33:15;100908.31;;;24.89;42.18
50852;BME280;43953;45.508;-122.806;2022-07-17T02:33:47;100912.69;;;24.90;42.27
50852;BME280;43953;45.508;-122.806;2022-07-17T02:34:18;100910.78;;;24.91;41.87
50852;BME280;43953;45.508;-122.806;2022-07-17T02:34:50;100914.84;;;24.93;41.89
50852;BME280;43953;45.508;-122.806;2022-07-17T02:35:22;100905.75;;;24.93;41.81
50852;BME280;43953;45.508;-122.806;2022-07-17T02:35:53;100905.16;;;24.96;41.96
50852;BME280;43953;45.508;-122.806;2022-07-17T02:36:25;100912.31;;;24.97;41.64
50852;BME280;43953;45.508;-122.806;2022-07-17T02:36:57;100911.19;;;24.98;41.54
50852;BME280;43953;45.508;-122.806;2022-07-17T02:37:29;100904.88;;;24.97;41.69
50852;BME280;43953;45.508;-122.806;2022-07-17T02:38:00;100910.91;;;25.00;41.37
50852;BME280;43953;45.508;-122.806;2022-07-17T02:38:32;100907.56;;;25.03;41.41
50852;BME280;43953;45.508;-122.806;2022-07-17T02:39:04;100911.03;;;25.08;41.48
50852;BME280;43953;45.508;-122.806;2022-07-17T02:39:36;100898.06;;;25.09;41.45
50852;BME280;43953;45.508;-122.806;2022-07-17T02:40:08;100903.75;;;25.17;41.21
50852;BME280;43953;45.508;-122.806;2022-07-17T02:40:40;100903.13;;;25.21;40.98
50852;BME280;43953;45.508;-122.806;2022-07-17T02:41:13;100901.41;;;25.25;40.83
50852;BME280;43953;45.508;-122.806;2022-07-17T02:41:44;100901.59;;;25.28;41.01
50852;BME280;43953;45.508;-122.806;2022-07-17T02:42:16;100906.50;;;25.31;40.70